sensor_id;sensor_type;location;lat;lon;timestamp;P1;durP1;ratioP1;P2;durP2;ratioP2
59442;SDS011;45247;47.466;19.004;2023-12-20T11:50:22;92.50;;;38.85;;
59442;SDS011;45247;47.466;19.004;2023-12-20T11:52:51;107.60;;;43.53;;
59442;SDS011;45247;47.466;19.004;2023-12-20T11:55:21;91.50;;;40.17;;
59442;SDS011;45247;47.466;19.004;2023-12-20T11:57:50;97.85;;;44.03;;
59442;SDS011;45247;47.466;19.004;2023-12-20T12:00:19;53.55;;;24.83;;
59442;SDS011;45247;47.466;19.004;2023-12-20T12:02:57;42.00;;;21.05;;
59442;SDS011;45247;47.466;19.004;2023-12-20T12:05:28;16.60;;;9.93;;
59442;SDS011;45247;47.466;19.004;2023-12-20T12:08:04;13.50;;;7.03;;
59442;SDS011;45247;47.466;19.004;2023-12-20T12:10:32;7.85;;;4.65;;
59442;SDS011;45247;47.466;19.004;2023-12-20T12:13:01;7.53;;;4.57;;
59442;SDS011;45247;47.466;19.004;2023-12-20T12:15:29;11.32;;;4.30;;
59442;SDS011;45247;47.466;19.004;2023-12-20T12:17:58;8.95;;;4.00;;
59442;SDS011;45247;47.466;19.004;2023-12-20T12:20:28;4.78;;;3.47;;
59442;SDS011;45247;47.466;19.004;2023-12-20T12:22:57;8.68;;;4.38;;
59442;SDS011;45247;47.466;19.004;2023-12-20T12:25:26;7.03;;;4.70;;
59442;SDS011;45247;47.466;19.004;2023-12-20T12:27:57;7.95;;;4.20;;
59442;SDS011;45247;47.466;19.004;2023-12-20T12:30:26;7.95;;;4.50;;
59442;SDS011;45247;47.466;19.004;2023-12-20T12:33:04;6.43;;;4.40;;
59442;SDS011;45247;47.466;19.004;2023-12-20T12:35:34;7.22;;;4.72;;
59442;SDS011;45247;47.466;19.004;2023-12-20T12:38:02;9.57;;;4.78;;
59442;SDS011;45247;47.466;19.004;2023-12-20T12:46:56;8.55;;;4.88;;
59442;SDS011;45247;47.466;19.004;2023-12-20T12:49:24;12.55;;;4.82;;
59442;SDS011;45247;47.466;19.004;2023-12-20T12:51:53;9.30;;;5.32;;
59442;SDS011;45247;47.466;19.004;2023-12-20T12:54:22;7.88;;;4.85;;
59442;SDS011;45247;47.466;19.004;2023-12-20T12:56:52;12.00;;;5.47;;
59442;SDS011;45247;47.466;19.004;2023-12-20T12:59:20;9.50;;;5.60;;
59442;SDS011;45247;47.466;19.004;2023-12-20T13:01:49;10.48;;;5.25;;
59442;SDS011;45247;47.466;19.004;2023-12-20T13:04:18;8.48;;;5.22;;
59442;SDS011;45247;47.466;19.004;2023-12-20T13:06:47;9.07;;;5.70;;
59442;SDS011;45247;47.466;19.004;2023-12-20T13:09:15;9.80;;;5.25;;
59442;SDS011;45247;47.466;19.004;2023-12-20T13:11:45;7.43;;;5.20;;
59442;SDS011;45247;47.466;19.004;2023-12-20T13:14:16;9.40;;;5.43;;
59442;SDS011;45247;47.466;19.004;2023-12-20T13:16:44;10.27;;;6.00;;
59442;SDS011;45247;47.466;19.004;2023-12-20T13:19:13;11.23;;;5.20;;
59442;SDS011;45247;47.466;19.004;2023-12-20T13:21:42;12.38;;;5.28;;
59442;SDS011;45247;47.466;19.004;2023-12-20T13:24:11;10.90;;;5.57;;
59442;SDS011;45247;47.466;19.004;2023-12-20T13:26:39;9.02;;;5.35;;
59442;SDS011;45247;47.466;19.004;2023-12-20T13:29:08;12.15;;;5.75;;
59442;SDS011;45247;47.466;19.004;2023-12-20T13:31:36;10.80;;;5.93;;
59442;SDS011;45247;47.466;19.004;2023-12-20T13:34:05;8.50;;;5.35;;
59442;SDS011;45247;47.466;19.004;2023-12-20T13:36:34;10.30;;;5.75;;
59442;SDS011;45247;47.466;19.004;2023-12-20T13:39:05;8.70;;;5.15;;
59442;SDS011;45247;47.466;19.004;2023-12-20T13:41:33;8.68;;;4.90;;
59442;SDS011;45247;47.466;19.004;2023-12-20T13:44:01;11.23;;;5.47;;
59442;SDS011;45247;47.466;19.004;2023-12-20T13:46:30;8.63;;;5.35;;
59442;SDS011;45247;47.466;19.004;2023-12-20T13:48:58;9.10;;;5.10;;
59442;SDS011;45247;47.466;19.004;2023-12-20T13:51:28;8.90;;;5.30;;
59442;SDS011;45247;47.466;19.004;2023-12-20T13:53:57;8.80;;;5.05;;
59442;SDS011;45247;47.466;19.004;2023-12-20T13:56:27;10.10;;;5.43;;
59442;SDS011;45247;47.466;19.004;2023-12-20T13:58:55;8.25;;;4.93;;
59442;SDS011;45247;47.466;19.004;2023-12-20T14:01:24;10.50;;;5.28;;
59442;SDS011;45247;47.466;19.004;2023-12-20T14:03:53;10.23;;;5.35;;
59442;SDS011;45247;47.466;19.004;2023-12-20T14:06:21;7.65;;;5.10;;
59442;SDS011;45247;47.466;19.004;2023-12-20T14:08:49;7.38;;;4.78;;
59442;SDS011;45247;47.466;19.004;2023-12-20T14:11:17;8.48;;;5.70;;
59442;SDS011;45247;47.466;19.004;2023-12-20T14:13:47;9.85;;;5.75;;
59442;SDS011;45247;47.466;19.004;2023-12-20T14:16:16;13.18;;;7.32;;
59442;SDS011;45247;47.466;19.004;2023-12-20T14:18:44;13.95;;;7.30;;
59442;SDS011;45247;47.466;19.004;2023-12-20T14:21:12;12.82;;;7.53;;
59442;SDS011;45247;47.466;19.004;2023-12-20T14:23:40;16.13;;;9.13;;
59442;SDS011;45247;47.466;19.004;2023-12-20T14:26:12;15.02;;;8.85;;
59442;SDS011;45247;47.466;19.004;2023-12-20T14:28:42;10.48;;;6.32;;
59442;SDS011;45247;47.466;19.004;2023-12-20T14:31:12;9.57;;;5.40;;
59442;SDS011;45247;47.466;19.004;2023-12-20T14:33:40;7.03;;;4.63;;
59442;SDS011;45247;47.466;19.004;2023-12-20T14:36:09;9.73;;;5.80;;
59442;SDS011;45247;47.466;19.004;2023-12-20T14:38:37;11.75;;;5.90;;
59442;SDS011;45247;47.466;19.004;2023-12-20T14:41:06;9.82;;;5.53;;
59442;SDS011;45247;47.466;19.004;2023-12-20T14:43:35;9.48;;;5.13;;
59442;SDS011;45247;47.466;19.004;2023-12-20T14:46:04;8.20;;;4.88;;
59442;SDS011;45247;47.466;19.004;2023-12-20T14:48:34;13.88;;;7.72;;
59442;SDS011;45247;47.466;19.004;2023-12-20T14:51:02;11.55;;;7.45;;
59442;SDS011;45247;47.466;19.004;2023-12-20T14:53:30;11.27;;;6.65;;
59442;SDS011;45247;47.466;19.004;2023-12-20T14:55:58;10.10;;;5.85;;
59442;SDS011;45247;47.466;19.004;2023-12-20T14:58:27;10.13;;;5.35;;
59442;SDS011;45247;47.466;19.004;2023-12-20T15:00:56;7.82;;;4.93;;
59442;SDS011;45247;47.466;19.004;2023-12-20T15:03:24;8.50;;;5.55;;
59442;SDS011;45247;47.466;19.004;2023-12-20T15:05:53;8.00;;;4.93;;
59442;SDS011;45247;47.466;19.004;2023-12-20T15:08:24;9.20;;;4.78;;
59442;SDS011;45247;47.466;19.004;2023-12-20T15:10:52;8.25;;;4.65;;
59442;SDS011;45247;47.466;19.004;2023-12-20T15:13:20;8.70;;;4.45;;
59442;SDS011;45247;47.466;19.004;2023-12-20T15:15:48;7.80;;;4.70;;
59442;SDS011;45247;47.466;19.004;2023-12-20T15:18:17;6.97;;;4.28;;
59442;SDS011;45247;47.466;19.004;2023-12-20T15:20:45;9.05;;;4.82;;
59442;SDS011;45247;47.466;19.004;2023-12-20T15:23:15;7.20;;;4.18;;
59442;SDS011;45247;47.466;19.004;2023-12-20T15:25:43;7.75;;;4.88;;
59442;SDS011;45247;47.466;19.004;2023-12-20T15:28:12;8.27;;;5.03;;
59442;SDS011;45247;47.466;19.004;2023-12-20T15:30:40;7.43;;;4.38;;
59442;SDS011;45247;47.466;19.004;2023-12-20T15:33:08;6.88;;;4.53;;
59442;SDS011;45247;47.466;19.004;2023-12-20T15:35:36;5.95;;;4.35;;
59442;SDS011;45247;47.466;19.004;2023-12-20T15:38:05;6.78;;;4.25;;
59442;SDS011;45247;47.466;19.004;2023-12-20T15:40:37;6.53;;;4.13;;
59442;SDS011;45247;47.466;19.004;2023-12-20T15:43:05;6.50;;;3.88;;
59442;SDS011;45247;47.466;19.004;2023-12-20T15:45:34;8.80;;;4.47;;
59442;SDS011;45247;47.466;19.004;2023-12-20T15:48:02;8.20;;;4.50;;
59442;SDS011;45247;47.466;19.004;2023-12-20T15:50:31;6.45;;;4.22;;
59442;SDS011;45247;47.466;19.004;2023-12-20T15:52:59;9.38;;;4.43;;
59442;SDS011;45247;47.466;19.004;2023-12-20T15:55:28;6.32;;;3.90;;
59442;SDS011;45247;47.466;19.004;2023-12-20T15:57:57;8.90;;;4.13;;
59442;SDS011;45247;47.466;19.004;2023-12-20T16:00:26;8.25;;;4.57;;
59442;SDS011;45247;47.466;19.004;2023-12-20T16:02:54;6.43;;;4.10;;
59442;SDS011;45247;47.466;19.004;2023-12-20T16:05:22;7.78;;;4.57;;
59442;SDS011;45247;47.466;19.004;2023-12-20T16:07:50;6.40;;;4.07;;
59442;SDS011;45247;47.466;19.004;2023-12-20T16:10:19;6.63;;;4.05;;
59442;SDS011;45247;47.466;19.004;2023-12-20T16:12:47;8.00;;;4.20;;
59442;SDS011;45247;47.466;19.004;2023-12-20T16:15:17;6.20;;;3.85;;
59442;SDS011;45247;47.466;19.004;2023-12-20T16:17:45;6.03;;;3.47;;
59442;SDS011;45247;47.466;19.004;2023-12-20T16:20:13;5.57;;;3.92;;
59442;SDS011;45247;47.466;19.004;2023-12-20T16:22:42;6.63;;;4.25;;
59442;SDS011;45247;47.466;19.004;2023-12-20T16:25:10;6.03;;;3.90;;
59442;SDS011;45247;47.466;19.004;2023-12-20T16:27:38;5.80;;;3.45;;
59442;SDS011;45247;47.466;19.004;2023-12-20T16:30:07;6.03;;;3.70;;
59442;SDS011;45247;47.466;19.004;2023-12-20T16:32:37;8.95;;;4.50;;
59442;SDS011;45247;47.466;19.004;2023-12-20T16:35:05;6.75;;;4.15;;
59442;SDS011;45247;47.466;19.004;2023-12-20T16:37:33;7.57;;;4.55;;
59442;SDS011;45247;47.466;19.004;2023-12-20T16:40:05;7.53;;;4.45;;
59442;SDS011;45247;47.466;19.004;2023-12-20T16:42:34;8.73;;;4.78;;
59442;SDS011;45247;47.466;19.004;2023-12-20T16:45:02;6.47;;;4.40;;
59442;SDS011;45247;47.466;19.004;2023-12-20T16:47:31;9.02;;;4.80;;
59442;SDS011;45247;47.466;19.004;2023-12-20T16:50:00;9.35;;;5.07;;
59442;SDS011;45247;47.466;19.004;2023-12-20T16:52:32;8.05;;;4.53;;
59442;SDS011;45247;47.466;19.004;2023-12-20T16:55:00;6.93;;;4.43;;
59442;SDS011;45247;47.466;19.004;2023-12-20T16:57:29;7.80;;;4.78;;
59442;SDS011;45247;47.466;19.004;2023-12-20T16:59:57;8.93;;;5.30;;
59442;SDS011;45247;47.466;19.004;2023-12-20T17:02:25;9.43;;;5.30;;
59442;SDS011;45247;47.466;19.004;2023-12-20T17:04:53;8.40;;;5.80;;
59442;SDS011;45247;47.466;19.004;2023-12-20T17:07:22;8.13;;;5.00;;
59442;SDS011;45247;47.466;19.004;2023-12-20T17:09:51;8.48;;;4.85;;
59442;SDS011;45247;47.466;19.004;2023-12-20T17:12:19;10.00;;;5.38;;
59442;SDS011;45247;47.466;19.004;2023-12-20T17:14:47;7.70;;;4.05;;
59442;SDS011;45247;47.466;19.004;2023-12-20T17:17:17;7.70;;;4.47;;
59442;SDS011;45247;47.466;19.004;2023-12-20T17:19:46;5.78;;;3.70;;
59442;SDS011;45247;47.466;19.004;2023-12-20T17:22:14;5.50;;;3.67;;
59442;SDS011;45247;47.466;19.004;2023-12-20T17:24:43;6.38;;;3.10;;
59442;SDS011;45247;47.466;19.004;2023-12-20T17:27:11;5.97;;;3.05;;
59442;SDS011;45247;47.466;19.004;2023-12-20T17:29:40;4.13;;;2.70;;
59442;SDS011;45247;47.466;19.004;2023-12-20T17:32:08;5.50;;;3.00;;
59442;SDS011;45247;47.466;19.004;2023-12-20T17:34:36;4.03;;;2.53;;
59442;SDS011;45247;47.466;19.004;2023-12-20T17:37:04;6.93;;;3.20;;
59442;SDS011;45247;47.466;19.004;2023-12-20T17:39:32;5.63;;;3.08;;
59442;SDS011;45247;47.466;19.004;2023-12-20T17:42:02;5.88;;;3.17;;
59442;SDS011;45247;47.466;19.004;2023-12-20T17:44:31;5.88;;;3.13;;
59442;SDS011;45247;47.466;19.004;2023-12-20T17:46:59;7.20;;;4.40;;
59442;SDS011;45247;47.466;19.004;2023-12-20T17:49:27;9.93;;;5.78;;
59442;SDS011;45247;47.466;19.004;2023-12-20T17:51:57;11.20;;;6.80;;
59442;SDS011;45247;47.466;19.004;2023-12-20T17:54:26;12.80;;;7.57;;
59442;SDS011;45247;47.466;19.004;2023-12-20T17:56:56;15.02;;;8.60;;
59442;SDS011;45247;47.466;19.004;2023-12-20T17:59:27;14.80;;;8.93;;
59442;SDS011;45247;47.466;19.004;2023-12-20T18:01:55;16.25;;;8.90;;
59442;SDS011;45247;47.466;19.004;2023-12-20T18:04:24;15.60;;;8.80;;
59442;SDS011;45247;47.466;19.004;2023-12-20T18:06:53;12.90;;;8.02;;
59442;SDS011;45247;47.466;19.004;2023-12-20T18:09:23;15.18;;;9.35;;
59442;SDS011;45247;47.466;19.004;2023-12-20T18:11:53;14.82;;;8.57;;
59442;SDS011;45247;47.466;19.004;2023-12-20T18:14:22;14.90;;;9.48;;
59442;SDS011;45247;47.466;19.004;2023-12-20T18:16:53;15.95;;;9.25;;
59442;SDS011;45247;47.466;19.004;2023-12-20T18:19:22;19.08;;;11.35;;
59442;SDS011;45247;47.466;19.004;2023-12-20T18:21:52;19.17;;;9.45;;
59442;SDS011;45247;47.466;19.004;2023-12-20T18:24:22;18.33;;;10.68;;
59442;SDS011;45247;47.466;19.004;2023-12-20T18:26:55;17.50;;;9.73;;
59442;SDS011;45247;47.466;19.004;2023-12-20T18:29:25;19.02;;;10.75;;
59442;SDS011;45247;47.466;19.004;2023-12-20T18:31:56;13.80;;;8.50;;
59442;SDS011;45247;47.466;19.004;2023-12-20T18:34:25;14.45;;;7.93;;
59442;SDS011;45247;47.466;19.004;2023-12-20T18:36:56;11.88;;;7.22;;
59442;SDS011;45247;47.466;19.004;2023-12-20T18:39:26;14.70;;;8.38;;
59442;SDS011;45247;47.466;19.004;2023-12-20T18:41:56;21.88;;;12.32;;
59442;SDS011;45247;47.466;19.004;2023-12-20T18:44:25;25.15;;;12.98;;
59442;SDS011;45247;47.466;19.004;2023-12-20T18:46:57;27.05;;;14.60;;
59442;SDS011;45247;47.466;19.004;2023-12-20T18:49:27;28.88;;;15.85;;
59442;SDS011;45247;47.466;19.004;2023-12-20T18:51:57;25.33;;;14.95;;
59442;SDS011;45247;47.466;19.004;2023-12-20T18:54:29;29.38;;;15.43;;
59442;SDS011;45247;47.466;19.004;2023-12-20T18:56:59;27.00;;;13.80;;
59442;SDS011;45247;47.466;19.004;2023-12-20T18:59:29;23.55;;;13.10;;
59442;SDS011;45247;47.466;19.004;2023-12-20T19:02:01;23.38;;;14.57;;
59442;SDS011;45247;47.466;19.004;2023-12-20T19:04:31;25.93;;;14.83;;
59442;SDS011;45247;47.466;19.004;2023-12-20T19:07:01;25.92;;;15.43;;
59442;SDS011;45247;47.466;19.004;2023-12-20T19:09:31;29.35;;;15.80;;
59442;SDS011;45247;47.466;19.004;2023-12-20T19:12:00;29.25;;;16.73;;
59442;SDS011;45247;47.466;19.004;2023-12-20T19:14:30;27.05;;;15.30;;
59442;SDS011;45247;47.466;19.004;2023-12-20T19:17:02;30.88;;;16.98;;
59442;SDS011;45247;47.466;19.004;2023-12-20T19:19:32;33.07;;;17.37;;
59442;SDS011;45247;47.466;19.004;2023-12-20T19:22:03;28.00;;;16.48;;
59442;SDS011;45247;47.466;19.004;2023-12-20T19:24:33;34.05;;;18.13;;
59442;SDS011;45247;47.466;19.004;2023-12-20T19:27:03;33.05;;;18.58;;
59442;SDS011;45247;47.466;19.004;2023-12-20T19:29:33;33.80;;;18.73;;
59442;SDS011;45247;47.466;19.004;2023-12-20T19:32:06;31.17;;;18.25;;
59442;SDS011;45247;47.466;19.004;2023-12-20T19:34:36;34.57;;;19.10;;
59442;SDS011;45247;47.466;19.004;2023-12-20T19:37:06;35.55;;;19.67;;
59442;SDS011;45247;47.466;19.004;2023-12-20T19:39:36;35.92;;;19.52;;
59442;SDS011;45247;47.466;19.004;2023-12-20T19:42:07;28.95;;;16.25;;
59442;SDS011;45247;47.466;19.004;2023-12-20T19:44:37;26.80;;;16.95;;
59442;SDS011;45247;47.466;19.004;2023-12-20T19:47:09;29.13;;;17.80;;
59442;SDS011;45247;47.466;19.004;2023-12-20T19:49:40;27.05;;;14.82;;
59442;SDS011;45247;47.466;19.004;2023-12-20T19:52:11;35.42;;;16.10;;
59442;SDS011;45247;47.466;19.004;2023-12-20T19:54:41;31.33;;;15.57;;
59442;SDS011;45247;47.466;19.004;2023-12-20T19:57:12;25.17;;;15.25;;
59442;SDS011;45247;47.466;19.004;2023-12-20T19:59:42;26.83;;;14.18;;
59442;SDS011;45247;47.466;19.004;2023-12-20T20:02:15;22.45;;;13.60;;
59442;SDS011;45247;47.466;19.004;2023-12-20T20:04:46;18.95;;;12.55;;
59442;SDS011;45247;47.466;19.004;2023-12-20T20:07:16;17.20;;;11.38;;
59442;SDS011;45247;47.466;19.004;2023-12-20T20:09:50;20.52;;;11.75;;
59442;SDS011;45247;47.466;19.004;2023-12-20T20:12:21;19.58;;;12.82;;
59442;SDS011;45247;47.466;19.004;2023-12-20T20:14:51;18.80;;;12.13;;
59442;SDS011;45247;47.466;19.004;2023-12-20T20:17:25;15.77;;;10.77;;
59442;SDS011;45247;47.466;19.004;2023-12-20T20:19:55;18.58;;;10.68;;
59442;SDS011;45247;47.466;19.004;2023-12-20T20:22:27;17.63;;;10.38;;
59442;SDS011;45247;47.466;19.004;2023-12-20T20:24:58;18.20;;;10.15;;
59442;SDS011;45247;47.466;19.004;2023-12-20T20:27:28;19.65;;;10.70;;
59442;SDS011;45247;47.466;19.004;2023-12-20T20:29:58;18.98;;;11.27;;
59442;SDS011;45247;47.466;19.004;2023-12-20T20:32:30;18.05;;;11.15;;
59442;SDS011;45247;47.466;19.004;2023-12-20T20:35:02;17.42;;;10.40;;
59442;SDS011;45247;47.466;19.004;2023-12-20T20:37:34;17.30;;;10.00;;
59442;SDS011;45247;47.466;19.004;2023-12-20T20:40:06;16.48;;;10.30;;
59442;SDS011;45247;47.466;19.004;2023-12-20T20:42:38;14.88;;;10.25;;
59442;SDS011;45247;47.466;19.004;2023-12-20T20:45:08;15.43;;;10.60;;
59442;SDS011;45247;47.466;19.004;2023-12-20T20:47:41;16.38;;;10.38;;
59442;SDS011;45247;47.466;19.004;2023-12-20T20:50:12;16.83;;;10.63;;
59442;SDS011;45247;47.466;19.004;2023-12-20T20:52:43;15.43;;;10.77;;
59442;SDS011;45247;47.466;19.004;2023-12-20T20:55:14;15.93;;;10.32;;
59442;SDS011;45247;47.466;19.004;2023-12-20T20:57:44;13.20;;;9.40;;
59442;SDS011;45247;47.466;19.004;2023-12-20T21:00:16;14.88;;;8.93;;
59442;SDS011;45247;47.466;19.004;2023-12-20T21:02:46;14.07;;;9.77;;
59442;SDS011;45247;47.466;19.004;2023-12-20T21:05:14;12.90;;;9.27;;
59442;SDS011;45247;47.466;19.004;2023-12-20T21:07:42;14.95;;;9.00;;
59442;SDS011;45247;47.466;19.004;2023-12-20T21:10:11;15.20;;;9.38;;
59442;SDS011;45247;47.466;19.004;2023-12-20T21:12:39;13.77;;;8.02;;
59442;SDS011;45247;47.466;19.004;2023-12-20T21:15:08;14.70;;;8.13;;
59442;SDS011;45247;47.466;19.004;2023-12-20T21:17:40;11.25;;;7.57;;
59442;SDS011;45247;47.466;19.004;2023-12-20T21:20:12;11.70;;;7.78;;
59442;SDS011;45247;47.466;19.004;2023-12-20T21:22:41;13.27;;;8.05;;
59442;SDS011;45247;47.466;19.004;2023-12-20T21:25:09;11.50;;;8.07;;
59442;SDS011;45247;47.466;19.004;2023-12-20T21:27:37;13.35;;;7.60;;
59442;SDS011;45247;47.466;19.004;2023-12-20T21:30:07;11.60;;;7.13;;
59442;SDS011;45247;47.466;19.004;2023-12-20T21:32:36;11.88;;;7.72;;
59442;SDS011;45247;47.466;19.004;2023-12-20T21:35:05;11.93;;;6.78;;
59442;SDS011;45247;47.466;19.004;2023-12-20T21:37:35;12.63;;;6.82;;
59442;SDS011;45247;47.466;19.004;2023-12-20T21:40:05;11.27;;;7.03;;
59442;SDS011;45247;47.466;19.004;2023-12-20T21:42:34;10.57;;;7.22;;
59442;SDS011;45247;47.466;19.004;2023-12-20T21:45:03;12.05;;;7.70;;
59442;SDS011;45247;47.466;19.004;2023-12-20T21:47:31;13.02;;;8.50;;
59442;SDS011;45247;47.466;19.004;2023-12-20T21:49:59;17.83;;;10.00;;
59442;SDS011;45247;47.466;19.004;2023-12-20T21:52:28;21.67;;;12.02;;
59442;SDS011;45247;47.466;19.004;2023-12-20T21:54:58;20.83;;;13.38;;
59442;SDS011;45247;47.466;19.004;2023-12-20T21:57:26;21.63;;;13.15;;
59442;SDS011;45247;47.466;19.004;2023-12-20T21:59:54;21.92;;;13.02;;
59442;SDS011;45247;47.466;19.004;2023-12-20T22:02:22;21.70;;;12.32;;
59442;SDS011;45247;47.466;19.004;2023-12-20T22:04:50;25.95;;;13.77;;
59442;SDS011;45247;47.466;19.004;2023-12-20T22:07:18;22.00;;;12.45;;
59442;SDS011;45247;47.466;19.004;2023-12-20T22:09:46;19.23;;;12.38;;
59442;SDS011;45247;47.466;19.004;2023-12-20T22:12:16;19.50;;;11.95;;
59442;SDS011;45247;47.466;19.004;2023-12-20T22:14:44;21.58;;;13.60;;
59442;SDS011;45247;47.466;19.004;2023-12-20T22:17:12;22.63;;;13.93;;
59442;SDS011;45247;47.466;19.004;2023-12-20T22:19:41;23.25;;;13.88;;
59442;SDS011;45247;47.466;19.004;2023-12-20T22:22:09;19.90;;;12.93;;
59442;SDS011;45247;47.466;19.004;2023-12-20T22:24:37;19.20;;;11.15;;
59442;SDS011;45247;47.466;19.004;2023-12-20T22:27:05;17.05;;;10.93;;
59442;SDS011;45247;47.466;19.004;2023-12-20T22:29:35;19.10;;;12.10;;
59442;SDS011;45247;47.466;19.004;2023-12-20T22:32:03;18.95;;;11.73;;
59442;SDS011;45247;47.466;19.004;2023-12-20T22:34:34;22.90;;;12.40;;
59442;SDS011;45247;47.466;19.004;2023-12-20T22:37:02;19.73;;;12.20;;
59442;SDS011;45247;47.466;19.004;2023-12-20T22:39:31;20.40;;;12.68;;
59442;SDS011;45247;47.466;19.004;2023-12-20T22:41:59;19.52;;;12.45;;
59442;SDS011;45247;47.466;19.004;2023-12-20T22:44:27;16.90;;;10.50;;
59442;SDS011;45247;47.466;19.004;2023-12-20T22:46:57;16.58;;;8.90;;
59442;SDS011;45247;47.466;19.004;2023-12-20T22:49:25;10.75;;;7.07;;
59442;SDS011;45247;47.466;19.004;2023-12-20T22:51:53;12.05;;;6.85;;
59442;SDS011;45247;47.466;19.004;2023-12-20T22:54:21;10.38;;;7.05;;
59442;SDS011;45247;47.466;19.004;2023-12-20T22:56:49;11.63;;;7.30;;
59442;SDS011;45247;47.466;19.004;2023-12-20T22:59:20;15.43;;;9.65;;
59442;SDS011;45247;47.466;19.004;2023-12-20T23:01:49;15.93;;;9.20;;
59442;SDS011;45247;47.466;19.004;2023-12-20T23:04:18;20.50;;;11.68;;
59442;SDS011;45247;47.466;19.004;2023-12-20T23:06:47;21.65;;;11.00;;
59442;SDS011;45247;47.466;19.004;2023-12-20T23:09:15;14.25;;;8.18;;
59442;SDS011;45247;47.466;19.004;2023-12-20T23:11:43;11.73;;;7.22;;
59442;SDS011;45247;47.466;19.004;2023-12-20T23:14:16;12.48;;;8.15;;
59442;SDS011;45247;47.466;19.004;2023-12-20T23:16:44;13.02;;;7.85;;
59442;SDS011;45247;47.466;19.004;2023-12-20T23:19:12;10.95;;;6.63;;
59442;SDS011;45247;47.466;19.004;2023-12-20T23:27:10;5.78;;;4.30;;
59442;SDS011;45247;47.466;19.004;2023-12-20T23:29:38;6.57;;;4.22;;
59442;SDS011;45247;47.466;19.004;2023-12-20T23:32:06;9.45;;;4.45;;
59442;SDS011;45247;47.466;19.004;2023-12-20T23:34:34;5.25;;;3.53;;
59442;SDS011;45247;47.466;19.004;2023-12-20T23:37:03;7.97;;;3.58;;
59442;SDS011;45247;47.466;19.004;2023-12-20T23:39:31;7.55;;;4.35;;
59442;SDS011;45247;47.466;19.004;2023-12-20T23:41:59;7.22;;;3.20;;
59442;SDS011;45247;47.466;19.004;2023-12-20T23:44:29;5.63;;;3.13;;
59442;SDS011;45247;47.466;19.004;2023-12-20T23:46:57;4.88;;;3.05;;
59442;SDS011;45247;47.466;19.004;2023-12-20T23:49:25;4.65;;;3.15;;
59442;SDS011;45247;47.466;19.004;2023-12-20T23:51:53;4.50;;;3.20;;
59442;SDS011;45247;47.466;19.004;2023-12-20T23:54:21;5.35;;;3.00;;
59442;SDS011;45247;47.466;19.004;2023-12-20T23:56:49;5.65;;;3.03;;
59442;SDS011;45247;47.466;19.004;2023-12-20T23:59:17;5.90;;;3.00;;
